Time;durP1;ratioP1;P1;durP2;ratioP2;P2;SDS_P1;SDS_P2;PMS_P1;PMS_P2;Temp;Humidity;BMP_temperature;BMP_pressure;BME280_temperature;BME280_humidity;BME280_pressure;Samples;Min_cycle;Max_cycle;Signal;HPM_P1;HPM_P2
2022/04/17 00:02:15;;;;;;;13.63;8.25;;;;;;;6.09;57.83;102916.34;5051683;28;20431;-70
2022/04/17 00:04:41;;;;;;;13.95;8.85;;;;;;;6.03;57.78;102914.19;5051712;28;20072;-70
2022/04/17 00:07:06;;;;;;;14.80;7.65;;;;;;;6.00;56.62;102923.19;5051829;28;20476;-70
2022/04/17 00:09:32;;;;;;;13.63;7.68;;;;;;;5.95;60.10;102906.81;5051588;28;20551;-70
2022/04/17 00:11:58;;;;;;;15.43;8.40;;;;;;;5.83;59.79;102900.59;5050881;28;20028;-70
2022/04/17 00:14:23;;;;;;;14.15;8.13;;;;;;;5.80;58.60;102910.56;5051655;28;20404;-70
2022/04/17 00:16:48;;;;;;;15.68;8.38;;;;;;;5.78;57.71;102915.13;5051718;28;20060;-70
2022/04/17 00:19:14;;;;;;;13.48;8.13;;;;;;;5.75;57.50;102910.06;5051533;28;20060;-70
2022/04/17 00:21:40;;;;;;;15.82;8.10;;;;;;;5.76;58.16;102917.88;5051485;28;20036;-70
2022/04/17 00:24:05;;;;;;;17.13;7.75;;;;;;;5.75;59.68;102912.72;5051532;28;20021;-70
2022/04/17 00:26:31;;;;;;;14.98;9.18;;;;;;;5.60;59.24;102891.69;5051214;28;20033;-70
2022/04/17 00:28:57;;;;;;;13.77;8.35;;;;;;;5.69;57.97;102917.50;5051299;28;20765;-70
2022/04/17 00:31:23;;;;;;;14.52;8.27;;;;;;;5.66;59.64;102911.59;5051285;28;20029;-70
2022/04/17 00:33:48;;;;;;;13.48;8.65;;;;;;;5.59;58.25;102910.34;5051239;28;20036;-70
2022/04/17 00:36:14;;;;;;;16.30;8.38;;;;;;;5.54;58.29;102904.56;5051201;28;20021;-71
2022/04/17 00:38:39;;;;;;;17.63;9.57;;;;;;;5.59;57.03;102903.25;5033369;28;20025;-70
2022/04/17 00:41:04;;;;;;;21.67;10.27;;;;;;;5.61;56.03;102908.44;5049719;28;20407;-70
2022/04/17 00:43:32;;;;;;;16.42;10.52;;;;;;;5.61;57.79;102904.00;5051151;28;20033;-70
2022/04/17 00:45:59;;;;;;;17.33;8.27;;;;;;;5.60;57.41;102904.09;5051019;28;20043;-70
2022/04/17 00:48:25;;;;;;;14.20;8.18;;;;;;;5.64;57.22;102903.75;5050805;28;20112;-70
2022/04/17 00:50:53;;;;;;;16.77;8.40;;;;;;;5.69;56.55;102906.06;5050900;28;20025;-70
2022/04/17 00:53:21;;;;;;;13.32;7.70;;;;;;;5.70;55.22;102899.81;5050803;28;20028;-70
2022/04/17 00:55:47;;;;;;;14.65;7.63;;;;;;;5.71;55.93;102906.78;5050630;28;20100;-70
2022/04/17 00:58:14;;;;;;;11.68;7.50;;;;;;;5.69;56.06;102898.97;5050711;28;20052;-70
2022/04/17 01:00:40;;;;;;;15.63;9.13;;;;;;;5.69;55.67;102896.31;5050853;28;20037;-70
2022/04/17 01:03:06;;;;;;;15.38;9.07;;;;;;;5.70;55.65;102903.28;5050685;28;20060;-70
2022/04/17 01:05:31;;;;;;;14.35;7.95;;;;;;;5.69;56.77;102895.50;5050725;28;20040;-70
2022/04/17 01:07:58;;;;;;;13.95;8.02;;;;;;;5.67;55.37;102903.53;5050654;28;20032;-70
2022/04/17 01:10:24;;;;;;;16.00;8.38;;;;;;;5.64;59.74;102897.63;5049237;28;20028;-70
2022/04/17 01:12:51;;;;;;;11.90;6.75;;;;;;;5.58;57.74;102904.22;5050470;28;20037;-70
2022/04/17 01:15:17;;;;;;;10.52;6.32;;;;;;;5.56;56.08;102900.84;5050595;28;20021;-70
2022/04/17 01:17:42;;;;;;;11.75;6.88;;;;;;;5.54;58.19;102905.41;5050114;28;20039;-71
2022/04/17 01:20:08;;;;;;;13.60;6.80;;;;;;;5.40;57.73;102895.84;5050098;28;20032;-70
2022/04/17 01:22:33;;;;;;;17.88;7.80;;;;;;;5.44;59.53;102904.38;5049789;28;20032;-71
2022/04/17 01:27:42;;;;;;;14.20;7.63;;;;;;;5.39;56.46;102903.88;5050404;28;20075;-70
2022/04/17 01:30:08;;;;;;;13.52;7.10;;;;;;;5.45;55.48;102914.03;5050162;28;20060;-70
2022/04/17 01:32:33;;;;;;;15.25;8.13;;;;;;;5.41;59.24;102908.09;5050199;28;20041;-70
2022/04/17 01:34:59;;;;;;;13.43;7.07;;;;;;;5.32;60.89;102903.50;5049996;28;20025;-70
2022/04/17 01:37:24;;;;;;;13.98;7.53;;;;;;;5.29;62.89;102895.75;5050029;28;20040;-70
2022/04/17 01:39:50;;;;;;;11.30;6.30;;;;;;;5.13;61.80;102895.16;5050100;28;20036;-70
2022/04/17 01:42:16;;;;;;;11.65;6.55;;;;;;;5.17;61.92;102897.50;5049938;28;20025;-70
2022/04/17 01:44:42;;;;;;;10.20;6.07;;;;;;;5.12;60.83;102902.28;5049561;28;20040;-70
2022/04/17 01:47:07;;;;;;;13.77;7.20;;;;;;;5.06;57.45;102897.44;5049875;28;20127;-70
2022/04/17 01:49:33;;;;;;;14.52;6.53;;;;;;;5.07;56.33;102901.75;5049974;28;20476;-70
2022/04/17 01:52:00;;;;;;;14.30;7.07;;;;;;;5.10;57.55;102898.03;5049562;28;20433;-70
2022/04/17 01:54:27;;;;;;;13.60;6.30;;;;;;;5.12;57.44;102904.91;5048421;28;20052;-70
2022/04/17 01:56:54;;;;;;;11.65;6.55;;;;;;;5.11;57.17;102905.00;5049783;28;20028;-70
2022/04/17 01:59:21;;;;;;;12.75;6.70;;;;;;;5.09;56.59;102899.84;5049425;28;20484;-70
2022/04/17 02:01:48;;;;;;;11.60;6.13;;;;;;;5.11;56.38;102900.59;5048858;28;20052;-70
2022/04/17 02:04:13;;;;;;;13.73;6.65;;;;;;;5.11;56.58;102894.44;5048816;28;20064;-70
2022/04/17 02:06:44;;;;;;;10.88;6.43;;;;;;;5.11;57.59;102890.00;5049246;28;20486;-70
2022/04/17 02:09:12;;;;;;;9.40;5.90;;;;;;;5.09;58.61;102891.06;5049251;28;20061;-70
2022/04/17 02:11:38;;;;;;;9.45;5.78;;;;;;;5.00;59.90;102882.84;5049391;28;20496;-70
2022/04/17 02:14:05;;;;;;;12.38;5.85;;;;;;;4.92;60.81;102885.16;5049464;28;20025;-70
2022/04/17 02:16:30;;;;;;;13.70;7.32;;;;;;;4.85;61.02;102886.59;5049365;28;20032;-70
2022/04/17 02:18:55;;;;;;;12.25;5.65;;;;;;;4.75;60.00;102886.38;5048057;28;20377;-70
2022/04/17 02:21:21;;;;;;;13.18;6.30;;;;;;;4.70;58.92;102890.31;5048850;28;20396;-70
2022/04/17 02:23:47;;;;;;;11.95;5.70;;;;;;;4.64;60.07;102885.44;5049083;28;20393;-70
2022/04/17 02:26:16;;;;;;;12.15;6.65;;;;;;;4.65;63.52;102893.25;5049321;28;20033;-70
2022/04/17 02:28:41;;;;;;;13.60;6.38;;;;;;;4.59;63.82;102891.06;5049253;28;20032;-70
2022/04/17 02:31:10;;;;;;;11.60;6.70;;;;;;;4.53;60.86;102894.09;5049246;28;20599;-70
2022/04/17 02:33:37;;;;;;;13.80;7.45;;;;;;;4.45;63.39;102884.06;5049315;28;20036;-70
2022/04/17 02:36:04;;;;;;;12.35;6.70;;;;;;;4.39;63.96;102892.44;5048946;28;20037;-70
2022/04/17 02:38:29;;;;;;;12.63;5.53;;;;;;;4.28;64.94;102885.25;5049123;28;20029;-70
2022/04/17 02:40:55;;;;;;;15.13;6.65;;;;;;;4.18;66.13;102881.53;5049122;28;20059;-70
2022/04/17 02:43:21;;;;;;;14.48;6.30;;;;;;;4.10;66.74;102881.22;5049205;28;20361;-70
2022/04/17 02:45:46;;;;;;;12.50;6.03;;;;;;;3.96;63.77;102868.97;5049110;28;20033;-70
2022/04/17 02:48:12;;;;;;;12.20;5.68;;;;;;;3.95;63.56;102870.72;5048979;28;20028;-71
2022/04/17 02:50:39;;;;;;;9.73;4.75;;;;;;;3.96;62.33;102866.31;5048970;28;20112;-71
2022/04/17 02:53:04;;;;;;;15.52;6.88;;;;;;;4.01;63.44;102877.41;5049061;28;20025;-70
2022/04/17 02:55:30;;;;;;;9.82;5.60;;;;;;;3.99;65.38;102878.47;5048807;28;20044;-70
2022/04/17 02:57:56;;;;;;;12.82;6.05;;;;;;;3.93;66.20;102874.44;5047640;28;20148;-70
2022/04/17 03:00:23;;;;;;;14.15;6.32;;;;;;;3.88;65.66;102866.00;5049009;28;20086;-70
2022/04/17 03:05:36;;;;;;;10.90;5.80;;;;;;;3.74;67.16;102857.16;5048857;28;20084;-70
2022/04/17 03:08:05;;;;;;;10.63;6.30;;;;;;;3.73;68.29;102873.13;5048945;28;20448;-70
2022/04/17 03:10:31;;;;;;;12.57;5.85;;;;;;;3.61;67.77;102864.22;5048940;28;20032;-70
2022/04/17 03:12:57;;;;;;;10.88;5.82;;;;;;;3.53;68.47;102866.50;5051365;28;20078;-70
2022/04/17 03:15:22;;;;;;;12.60;6.47;;;;;;;3.48;69.43;102873.88;5052741;28;20033;-70
2022/04/17 03:17:48;;;;;;;12.50;6.38;;;;;;;3.41;70.22;102873.44;5052693;28;20024;-70
2022/04/17 03:20:14;;;;;;;11.68;5.38;;;;;;;3.31;68.11;102877.63;5051293;28;20086;-70
2022/04/17 03:22:43;;;;;;;12.13;6.45;;;;;;;3.24;68.20;102865.78;5052134;28;20087;-70
2022/04/17 03:25:09;;;;;;;9.77;6.32;;;;;;;3.24;67.35;102865.78;5052044;28;20037;-70
2022/04/17 03:27:35;;;;;;;12.80;6.78;;;;;;;3.28;68.14;102854.94;5052360;28;20442;-70
2022/04/17 03:30:00;;;;;;;12.20;5.93;;;;;;;3.29;68.92;102858.41;5052389;28;20033;-71
2022/04/17 03:32:26;;;;;;;13.57;6.47;;;;;;;3.28;68.81;102851.47;5052457;28;20025;-70
2022/04/17 03:34:51;;;;;;;12.43;6.72;;;;;;;3.25;68.69;102851.66;5050994;28;20045;-71
2022/04/17 03:37:17;;;;;;;14.55;7.32;;;;;;;3.23;69.71;102857.03;5052361;28;20032;-70
2022/04/17 03:39:44;;;;;;;13.13;8.60;;;;;;;3.13;71.12;102855.91;5052398;28;20025;-70
2022/04/17 03:42:10;;;;;;;13.38;6.60;;;;;;;2.97;68.94;102834.13;5052367;28;20024;-70
2022/04/17 03:44:35;;;;;;;16.45;7.80;;;;;;;3.04;68.95;102848.63;5052313;28;20033;-70
2022/04/17 03:47:01;;;;;;;14.85;7.18;;;;;;;3.02;67.79;102856.63;5050975;28;20148;-70
2022/04/17 03:49:26;;;;;;;14.15;7.45;;;;;;;2.98;68.45;102849.00;5052123;28;20587;-70
2022/04/17 03:51:52;;;;;;;11.10;5.93;;;;;;;2.97;69.19;102848.16;5052158;28;20028;-70
2022/04/17 03:54:18;;;;;;;14.32;6.80;;;;;;;2.94;68.44;102853.63;5052116;28;20035;-70
2022/04/17 03:56:44;;;;;;;14.57;7.65;;;;;;;2.91;68.62;102850.31;5051943;28;20083;-70
2022/04/17 03:59:10;;;;;;;12.30;7.28;;;;;;;2.88;68.75;102853.16;5051866;28;20041;-70
2022/04/17 04:01:35;;;;;;;12.15;6.57;;;;;;;2.86;67.62;102848.00;5051908;28;20369;-70
2022/04/17 04:04:01;;;;;;;12.27;6.30;;;;;;;2.90;66.91;102857.38;5051448;28;20086;-70
2022/04/17 04:06:27;;;;;;;11.38;6.50;;;;;;;2.89;67.59;102857.50;5051349;28;20188;-70
2022/04/17 04:08:53;;;;;;;12.73;6.25;;;;;;;2.92;66.98;102855.50;5051571;28;20107;-70
2022/04/17 04:11:18;;;;;;;10.77;6.90;;;;;;;2.90;67.29;102846.84;5051510;28;20029;-70
2022/04/17 04:13:44;;;;;;;14.35;6.78;;;;;;;2.92;68.08;102844.13;5051592;28;20102;-70
2022/04/17 04:16:10;;;;;;;12.35;6.63;;;;;;;2.85;68.72;102835.75;5051652;28;20495;-71
2022/04/17 04:18:35;;;;;;;13.45;6.85;;;;;;;2.82;69.82;102831.50;5051706;28;20035;-71
2022/04/17 04:21:01;;;;;;;13.70;6.40;;;;;;;2.73;71.13;102826.00;5051569;28;20028;-71
2022/04/17 04:23:26;;;;;;;13.02;6.70;;;;;;;2.68;71.23;102828.06;5050690;28;20428;-71
2022/04/17 04:25:52;;;;;;;13.65;7.70;;;;;;;2.58;72.42;102815.47;5050780;28;20413;-70
2022/04/17 04:31:05;;;;;;;14.15;7.45;;;;;;;2.57;71.75;102820.84;5051415;28;20047;-70
2022/04/17 04:33:35;;;;;;;15.85;6.45;;;;;;;2.54;70.94;102821.00;5051313;28;20055;-70
2022/04/17 04:36:01;;;;;;;13.88;6.22;;;;;;;2.51;70.26;102811.50;5051315;28;20542;-71
2022/04/17 04:38:27;;;;;;;11.88;6.22;;;;;;;2.59;69.62;102817.16;5051184;28;20451;-70
2022/04/17 04:40:53;;;;;;;15.27;7.93;;;;;;;2.69;68.62;102806.03;5051094;28;20112;-70
2022/04/17 04:43:19;;;;;;;14.80;7.50;;;;;;;2.72;69.45;102805.84;5050938;28;20032;-70
2022/04/17 04:51:16;;;;;;;11.88;6.13;;;;;;;2.73;71.93;102808.38;5049510;28;20044;-70
2022/04/17 04:53:42;;;;;;;17.00;6.72;;;;;;;2.74;72.11;102810.06;5050988;28;20610;-70
2022/04/17 04:56:08;;;;;;;13.27;6.43;;;;;;;2.75;71.84;102814.41;5050938;28;20495;-70
2022/04/17 04:58:34;;;;;;;12.77;6.82;;;;;;;2.77;71.94;102819.56;5050410;28;20064;-70
2022/04/17 05:00:59;;;;;;;15.35;8.05;;;;;;;2.75;69.86;102814.41;5050647;28;20033;-70
2022/04/17 05:03:25;;;;;;;13.95;6.60;;;;;;;2.84;68.78;102820.88;5049178;28;20060;-70
2022/04/17 05:05:51;;;;;;;12.93;6.60;;;;;;;2.90;68.36;102807.31;5050659;28;20032;-70
2022/04/17 05:08:16;;;;;;;14.15;7.13;;;;;;;3.09;68.55;102812.22;5050830;28;20503;-70
2022/04/17 05:10:42;;;;;;;13.30;7.47;;;;;;;3.65;68.26;102807.66;5050663;28;20033;-70
2022/04/17 05:13:08;;;;;;;17.52;7.03;;;;;;;4.04;66.79;102805.06;5050244;28;20506;-70
2022/04/17 05:15:34;;;;;;;14.45;5.90;;;;;;;4.66;66.63;102813.00;5050569;28;20515;-70
2022/04/17 05:17:59;;;;;;;12.57;6.30;;;;;;;5.05;63.65;102803.16;5049132;28;20025;-70
2022/04/17 05:20:26;;;;;;;13.75;6.80;;;;;;;5.14;62.75;102807.78;5050401;28;20374;-70
2022/04/17 05:22:56;;;;;;;16.25;6.90;;;;;;;5.18;63.85;102811.88;5049989;28;20082;-70
2022/04/17 05:25:22;;;;;;;16.70;5.57;;;;;;;5.24;64.39;102821.19;5049833;28;20870;-70
2022/04/17 05:27:48;;;;;;;9.20;5.80;;;;;;;5.28;66.24;102827.94;5049630;28;20029;-70
2022/04/17 05:30:13;;;;;;;10.20;6.43;;;;;;;5.98;63.37;102820.97;5049836;28;20390;-70
2022/04/17 05:32:38;;;;;;;11.63;7.13;;;;;;;6.89;59.10;102820.84;5050237;28;20036;-70
2022/04/17 05:35:04;;;;;;;12.93;6.25;;;;;;;7.34;57.19;102803.94;5049061;28;20040;-70
2022/04/17 05:37:29;;;;;;;17.60;7.72;;;;;;;7.52;56.04;102806.84;5050005;28;20033;-70
2022/04/17 05:39:55;;;;;;;12.73;5.68;;;;;;;7.31;54.83;102810.34;5050103;28;20037;-70
2022/04/17 05:42:20;;;;;;;11.57;6.03;;;;;;;7.09;55.44;102807.75;5050182;28;20025;-70
2022/04/17 05:44:47;;;;;;;12.30;5.60;;;;;;;7.04;55.14;102821.41;5049980;28;20373;-70
2022/04/17 05:47:13;;;;;;;14.07;5.70;;;;;;;7.00;55.66;102812.84;5049875;28;20040;-71
2022/04/17 05:49:39;;;;;;;14.07;6.32;;;;;;;6.91;56.30;102818.91;5049937;28;20029;-71
2022/04/17 05:52:05;;;;;;;11.20;6.07;;;;;;;6.75;56.60;102818.44;5049490;28;20047;-70
2022/04/17 05:54:30;;;;;;;11.95;6.38;;;;;;;6.70;59.57;102813.50;5049940;28;20035;-71
2022/04/17 05:56:55;;;;;;;12.60;6.30;;;;;;;6.97;56.56;102796.34;5049854;28;20117;-71
2022/04/17 05:59:22;;;;;;;13.07;6.80;;;;;;;7.50;57.07;102807.00;5049866;28;20029;-70
2022/04/17 06:01:47;;;;;;;9.55;5.70;;;;;;;8.01;56.24;102819.50;5048558;28;20107;-70
2022/04/17 06:04:13;;;;;;;13.13;5.95;;;;;;;8.30;55.71;102810.81;5049457;28;20487;-71
2022/04/17 06:06:38;;;;;;;13.48;5.35;;;;;;;8.11;54.06;102817.72;5049732;28;20106;-71
2022/04/17 06:09:03;;;;;;;15.57;6.40;;;;;;;7.85;55.33;102811.16;5049087;28;20039;-71
2022/04/17 06:11:29;;;;;;;10.23;5.55;;;;;;;7.90;55.54;102823.06;5049346;28;20037;-71
2022/04/17 06:13:55;;;;;;;11.48;6.25;;;;;;;8.04;53.39;102816.59;5048045;28;20041;-71
2022/04/17 06:16:21;;;;;;;11.55;6.15;;;;;;;8.16;53.20;102832.47;5049436;28;20068;-71
2022/04/17 06:18:46;;;;;;;16.25;5.50;;;;;;;8.19;54.56;102833.03;5049445;28;20096;-71
2022/04/17 06:21:12;;;;;;;10.80;5.47;;;;;;;8.09;54.18;102821.50;5049258;28;20025;-71
2022/04/17 06:23:37;;;;;;;11.05;5.55;;;;;;;7.90;55.76;102817.75;5049402;28;20057;-71
2022/04/17 06:26:03;;;;;;;12.30;5.65;;;;;;;7.78;54.62;102810.84;5049228;28;20055;-71
2022/04/17 06:28:28;;;;;;;7.43;4.78;;;;;;;7.72;55.41;102803.38;5047542;28;20036;-71
2022/04/17 06:30:54;;;;;;;12.20;5.50;;;;;;;7.73;56.75;102817.50;5048501;28;20116;-71
2022/04/17 06:33:19;;;;;;;9.02;5.00;;;;;;;7.74;56.55;102808.56;5049023;28;20518;-70
2022/04/17 06:35:45;;;;;;;7.95;4.88;;;;;;;7.72;56.36;102814.00;5049222;28;20036;-70
2022/04/17 06:38:10;;;;;;;12.45;5.50;;;;;;;7.82;58.01;102814.91;5047859;28;20429;-70
2022/04/17 06:40:36;;;;;;;10.27;5.65;;;;;;;7.90;57.10;102796.50;5049134;28;20079;-70
2022/04/17 06:43:05;;;;;;;9.93;5.00;;;;;;;8.06;56.94;102797.84;5049276;28;20043;-70
2022/04/17 06:45:33;;;;;;;10.63;5.47;;;;;;;8.23;57.33;102804.38;5049101;28;20084;-70
2022/04/17 06:48:21;;;;;;;8.55;4.93;;;;;;;8.41;55.32;102804.59;5053182;28;20029;-71
2022/04/17 06:50:48;;;;;;;9.80;5.28;;;;;;;8.33;55.59;102800.78;5052919;28;20036;-71
2022/04/17 06:53:14;;;;;;;9.75;5.55;;;;;;;8.32;56.36;102807.06;5053268;28;20100;-70
2022/04/17 06:55:39;;;;;;;10.00;5.18;;;;;;;8.31;55.25;102807.22;5053105;28;20037;-70
2022/04/17 06:58:05;;;;;;;9.95;5.40;;;;;;;8.24;56.83;102808.72;5052852;28;20041;-69
2022/04/17 07:00:31;;;;;;;8.48;5.38;;;;;;;8.27;56.81;102809.28;5052964;28;20043;-71
2022/04/17 07:02:56;;;;;;;9.93;5.20;;;;;;;8.32;55.92;102811.53;5052811;28;20142;-72
2022/04/17 07:05:22;;;;;;;10.25;4.68;;;;;;;8.32;54.76;102811.53;5052802;28;20396;-71
2022/04/17 07:07:57;;;;;;;9.52;4.68;;;;;;;8.36;55.91;102810.31;5053037;28;20033;-71
2022/04/17 07:10:22;;;;;;;8.63;6.13;;;;;;;8.35;54.71;102795.31;5052765;28;20028;-71
2022/04/17 07:12:48;;;;;;;9.90;4.90;;;;;;;8.49;54.20;102797.66;5034800;28;20039;-71
2022/04/17 07:15:13;;;;;;;10.85;5.50;;;;;;;8.58;56.34;102803.97;5051117;28;20039;-71
2022/04/17 07:17:40;;;;;;;7.72;4.63;;;;;;;8.62;53.48;102797.41;5052747;28;20064;-71
2022/04/17 07:20:09;;;;;;;8.88;5.13;;;;;;;8.68;55.59;102804.00;5052588;28;20028;-71
2022/04/17 07:22:35;;;;;;;9.07;4.72;;;;;;;8.90;55.00;102793.13;5052534;28;20032;-71
2022/04/17 07:25:01;;;;;;;10.52;4.53;;;;;;;9.11;53.63;102784.19;5052339;28;20399;-71
2022/04/17 07:27:38;;;;;;;7.55;4.32;;;;;;;9.45;53.02;102784.59;5050979;28;20598;-71
2022/04/17 07:30:26;;;;;;;7.53;4.40;;;;;;;9.97;52.45;102784.22;5052397;28;20020;-71
2022/04/17 07:32:53;;;;;;;9.05;4.20;;;;;;;10.43;48.88;102783.38;5052423;28;20021;-71
2022/04/17 07:35:20;;;;;;;6.80;3.90;;;;;;;10.79;47.67;102777.28;5052409;28;20044;-71
2022/04/17 07:37:50;;;;;;;5.70;3.70;;;;;;;11.18;47.59;102778.66;5052355;28;20416;-71
2022/04/17 07:40:21;;;;;;;9.20;4.25;;;;;;;11.24;46.14;102761.19;5052254;28;20480;-71
2022/04/17 07:42:47;;;;;;;9.80;4.82;;;;;;;11.23;47.69;102774.69;5052365;28;20064;-71
2022/04/17 07:45:14;;;;;;;7.28;4.63;;;;;;;11.20;45.95;102775.84;5051806;28;20033;-71
2022/04/17 07:47:39;;;;;;;8.00;4.68;;;;;;;11.36;46.46;102773.31;5052244;28;20033;-71
2022/04/17 07:50:07;;;;;;;6.72;4.15;;;;;;;11.56;44.65;102776.66;5052170;28;20024;-71
2022/04/17 07:52:36;;;;;;;7.47;3.63;;;;;;;12.52;44.97;102775.69;5051679;28;20033;-71
2022/04/17 07:55:03;;;;;;;8.13;5.10;;;;;;;13.83;42.65;102759.69;5052055;28;20493;-71
2022/04/17 07:57:28;;;;;;;8.07;4.40;;;;;;;15.29;39.06;102765.34;5051270;28;20080;-71
2022/04/17 07:59:55;;;;;;;8.02;4.53;;;;;;;16.90;34.57;102761.19;5051621;28;20029;-71
2022/04/17 08:02:22;;;;;;;8.65;4.60;;;;;;;18.00;32.47;102754.38;5050654;28;20040;-71
2022/04/17 08:04:51;;;;;;;5.38;3.90;;;;;;;18.94;32.94;102751.00;5051240;28;20103;-71
2022/04/17 08:07:18;;;;;;;5.32;4.00;;;;;;;20.09;29.88;102753.38;5050113;28;20041;-71
2022/04/17 08:09:44;;;;;;;5.20;4.00;;;;;;;21.05;28.75;102748.94;5051794;28;20033;-71
2022/04/17 08:12:09;;;;;;;5.20;3.30;;;;;;;21.74;27.90;102745.19;5051619;28;20033;-71
2022/04/17 08:14:35;;;;;;;4.40;3.22;;;;;;;22.54;26.51;102752.41;5050509;28;20033;-72
2022/04/17 08:17:00;;;;;;;4.85;3.58;;;;;;;23.11;26.11;102741.94;5051654;28;20532;-72
2022/04/17 08:19:25;;;;;;;4.88;3.75;;;;;;;23.59;27.44;102740.88;5051540;28;20437;-71
2022/04/17 08:21:51;;;;;;;4.93;4.00;;;;;;;24.03;23.41;102748.69;5050142;28;20115;-71
2022/04/17 08:24:18;;;;;;;5.05;3.63;;;;;;;23.56;24.42;102737.81;5051561;28;20123;-71
2022/04/17 08:26:43;;;;;;;7.68;3.45;;;;;;;23.42;23.66;102739.94;5051283;28;20115;-71
2022/04/17 08:29:10;;;;;;;6.90;3.85;;;;;;;23.43;23.50;102743.50;5050069;28;20147;-71
2022/04/17 08:31:35;;;;;;;7.53;4.40;;;;;;;23.34;23.35;102738.44;5051079;28;20036;-71
2022/04/17 08:34:01;;;;;;;8.45;4.00;;;;;;;23.12;23.87;102740.88;5051312;28;20032;-72
2022/04/17 08:36:26;;;;;;;8.90;3.40;;;;;;;22.45;24.22;102740.19;5051365;28;20025;-72
2022/04/17 08:38:51;;;;;;;4.75;3.50;;;;;;;21.94;23.92;102742.25;5051255;28;20115;-71
2022/04/17 08:41:20;;;;;;;6.85;3.53;;;;;;;21.14;26.22;102736.75;5051241;28;20055;-71
2022/04/17 08:43:46;;;;;;;4.85;3.10;;;;;;;19.68;29.42;102744.53;5049385;28;20373;-72
2022/04/17 08:46:12;;;;;;;8.48;3.53;;;;;;;18.19;30.15;102739.31;5051142;28;20059;-72
2022/04/17 08:48:38;;;;;;;5.88;3.50;;;;;;;17.06;32.50;102739.34;5051114;28;20025;-71
2022/04/17 08:51:05;;;;;;;5.68;3.95;;;;;;;16.28;36.06;102742.81;5051008;28;20033;-71
2022/04/17 08:53:33;;;;;;;3.67;3.05;;;;;;;15.67;34.47;102735.75;5050993;28;20059;-72
2022/04/17 08:55:58;;;;;;;7.68;3.97;;;;;;;15.29;35.92;102733.06;5050653;28;20033;-71
2022/04/17 08:58:24;;;;;;;6.03;3.65;;;;;;;14.97;36.75;102742.25;5050932;28;20037;-72
2022/04/17 09:00:50;;;;;;;5.78;4.25;;;;;;;14.64;36.13;102726.34;5050896;28;20096;-72
2022/04/17 09:03:15;;;;;;;6.97;4.32;;;;;;;14.50;38.96;102737.00;5049355;28;20053;-72
2022/04/17 09:05:40;;;;;;;5.38;3.72;;;;;;;14.37;36.68;102730.34;5050807;28;20024;-72
2022/04/17 09:08:20;;;;;;;5.40;3.40;;;;;;;14.25;39.39;102731.72;5050801;28;20598;-72
2022/04/17 09:10:56;;;;;;;8.13;4.50;;;;;;;14.17;40.02;102735.31;5050430;28;20067;-72
2022/04/17 09:13:26;;;;;;;9.45;5.25;;;;;;;14.10;40.29;102726.28;5065901;28;20403;-72
2022/04/17 09:15:53;;;;;;;6.60;3.92;;;;;;;14.02;37.41;102729.00;5050522;28;20029;-72
2022/04/17 09:18:19;;;;;;;7.38;4.15;;;;;;;13.94;37.27;102723.66;5050458;28;20103;-72
2022/04/17 09:20:49;;;;;;;4.22;3.30;;;;;;;13.94;42.49;102727.16;5050109;28;20028;-72
2022/04/17 09:23:15;;;;;;;5.50;3.40;;;;;;;14.03;41.79;102727.97;5065199;28;20372;-72
2022/04/17 09:25:45;;;;;;;7.65;3.95;;;;;;;14.09;39.40;102721.06;5050332;28;20024;-72
2022/04/17 09:28:10;;;;;;;5.95;3.67;;;;;;;14.09;38.22;102713.03;5050326;28;20484;-72
2022/04/17 09:30:36;;;;;;;4.72;3.30;;;;;;;14.16;38.46;102724.72;5050266;28;20056;-72
2022/04/17 09:33:15;;;;;;;6.82;3.75;;;;;;;14.14;39.21;102708.81;5050223;28;20480;-72
2022/04/17 09:35:52;;;;;;;4.43;3.20;;;;;;;14.21;37.56;102706.25;5048911;28;20392;-72
2022/04/17 09:38:22;;;;;;;5.15;3.38;;;;;;;14.19;41.90;102697.53;5050145;28;20029;-72
2022/04/17 09:40:49;;;;;;;6.35;3.90;;;;;;;14.26;42.56;102695.84;5049982;28;20034;-72
2022/04/17 09:43:17;;;;;;;5.03;3.70;;;;;;;14.37;38.54;102695.44;5050225;28;20029;-72
2022/04/17 09:46:15;;;;;;;5.25;3.40;;;;;;;14.40;40.57;102688.88;5049997;28;20162;-72
2022/04/17 09:48:43;;;;;;;6.85;4.25;;;;;;;14.59;41.10;102685.78;5037603;28;20106;-72
2022/04/17 09:51:24;;;;;;;6.72;4.13;;;;;;;14.68;39.82;102687.38;5049878;28;20025;-72
2022/04/17 09:54:03;;;;;;;5.47;4.05;;;;;;;14.77;39.93;102676.56;5049853;28;20447;-72
2022/04/17 09:56:40;;;;;;;5.90;3.38;;;;;;;14.88;38.72;102679.69;5049819;28;20024;-72
2022/04/17 09:59:21;;;;;;;5.72;3.45;;;;;;;14.77;37.05;102674.72;5049753;28;20079;-72
2022/04/17 10:01:50;;;;;;;5.32;3.33;;;;;;;14.57;36.17;102662.81;5049758;28;20025;-72
2022/04/17 10:04:19;;;;;;;6.13;3.80;;;;;;;14.59;38.96;102663.44;5049717;28;20049;-72
2022/04/17 10:06:46;;;;;;;4.28;3.15;;;;;;;14.68;37.41;102657.00;5049660;28;20095;-72
2022/04/17 10:09:13;;;;;;;6.03;3.35;;;;;;;14.79;40.41;102653.06;5049732;28;20052;-72
2022/04/17 10:11:40;;;;;;;6.13;3.55;;;;;;;14.95;36.04;102654.78;5049590;28;20029;-72
2022/04/17 10:14:06;;;;;;;4.85;3.58;;;;;;;15.01;37.61;102638.78;5046566;28;20016;-71
2022/04/17 10:16:33;;;;;;;5.47;3.10;;;;;;;15.15;40.71;102641.69;5043730;28;20036;-72
2022/04/17 10:19:04;;;;;;;6.05;3.88;;;;;;;15.27;37.45;102632.97;5043569;28;20044;-71
2022/04/17 10:21:34;;;;;;;4.65;3.53;;;;;;;15.31;41.03;102625.38;5043204;28;20024;-73
2022/04/17 10:24:02;;;;;;;7.07;3.92;;;;;;;15.39;37.44;102624.44;5076292;28;20025;-74
2022/04/17 10:26:29;;;;;;;5.80;4.30;;;;;;;15.44;35.91;102627.41;5044994;28;20023;-72
2022/04/17 10:28:56;;;;;;;5.97;3.67;;;;;;;15.37;35.75;102621.09;5045078;28;20039;-72
2022/04/17 10:31:22;;;;;;;6.40;3.83;;;;;;;15.42;38.33;102606.09;5045300;28;20399;-72
2022/04/17 10:34:06;;;;;;;8.73;4.40;;;;;;;15.48;35.73;102612.56;5045225;28;20033;-71
2022/04/17 10:36:50;;;;;;;6.00;3.95;;;;;;;15.49;40.17;102614.25;5045146;28;20029;-72
2022/04/17 10:39:23;;;;;;;5.78;3.30;;;;;;;15.63;37.48;102610.72;5045196;28;20021;-71
2022/04/17 10:41:49;;;;;;;4.80;3.20;;;;;;;15.76;36.20;102604.69;5044192;28;20025;-71
2022/04/17 10:44:15;;;;;;;5.25;3.60;;;;;;;15.78;35.15;102591.91;5047529;28;20074;-70
2022/04/17 10:46:51;;;;;;;8.63;3.70;;;;;;;15.86;39.42;102599.03;5049056;28;20029;-71
2022/04/17 10:49:22;;;;;;;7.60;4.20;;;;;;;15.91;37.32;102586.66;5049107;28;20028;-70
2022/04/17 10:51:55;;;;;;;7.70;3.70;;;;;;;15.92;36.38;102582.94;5049089;28;20052;-70
2022/04/17 10:54:20;;;;;;;6.05;3.70;;;;;;;15.92;33.24;102582.13;5049123;28;20094;-70
2022/04/17 10:56:55;;;;;;;6.22;3.55;;;;;;;15.96;35.01;102578.88;5047553;28;20029;-70
2022/04/17 10:59:32;;;;;;;5.93;3.78;;;;;;;16.04;36.08;102575.22;5048871;28;20450;-70
2022/04/17 11:02:07;;;;;;;5.55;3.97;;;;;;;16.03;33.03;102576.22;5048581;28;20013;-70
2022/04/17 11:04:55;;;;;;;6.10;3.85;;;;;;;15.96;33.80;102567.28;5048423;28;20057;-70
2022/04/17 11:07:26;;;;;;;6.65;4.18;;;;;;;15.93;33.33;102563.09;5048789;28;20029;-70
2022/04/17 11:10:20;;;;;;;5.00;3.40;;;;;;;15.91;33.24;102562.44;5048832;28;20422;-71
2022/04/17 11:12:47;;;;;;;6.57;4.75;;;;;;;16.01;32.34;102551.38;5048947;28;20025;-70
2022/04/17 11:15:12;;;;;;;6.95;4.03;;;;;;;16.16;34.70;102545.94;5048816;28;20133;-70
2022/04/17 11:17:39;;;;;;;5.45;3.17;;;;;;;16.39;36.73;102551.94;5048283;28;20190;-71
2022/04/17 11:20:07;;;;;;;5.93;3.17;;;;;;;16.49;32.58;102538.16;5048585;28;20040;-70
2022/04/17 11:22:34;;;;;;;7.38;3.33;;;;;;;16.47;31.80;102537.50;5048805;28;20903;-70
2022/04/17 11:25:02;;;;;;;5.70;3.30;;;;;;;16.43;30.44;102537.09;5048827;28;20033;-70
2022/04/17 11:27:45;;;;;;;4.45;2.92;;;;;;;16.24;29.75;102529.63;5048554;28;20033;-70
2022/04/17 11:30:19;;;;;;;6.25;3.13;;;;;;;16.31;32.86;102530.53;5048289;28;20036;-71
2022/04/17 11:32:47;;;;;;;6.05;3.28;;;;;;;16.44;31.63;102525.28;5049641;28;20040;-71
2022/04/17 11:35:18;;;;;;;6.80;3.30;;;;;;;16.56;33.15;102514.81;5051885;28;20383;-71
2022/04/17 11:37:52;;;;;;;5.97;3.38;;;;;;;16.72;34.66;102518.25;5052234;28;20029;-71
2022/04/17 11:40:19;;;;;;;6.03;3.83;;;;;;;16.86;32.54;102517.31;5052608;28;20025;-71
2022/04/17 11:42:56;;;;;;;7.13;3.38;;;;;;;16.95;33.28;102513.44;5052257;28;20025;-71